CEB646 RPVP-RPLL
Flight info
| Callsign | CEB646 |
|---|---|
| Flight time | 0h 56m |
| Altitude | 35000 |
| Route | DABOY1E DABOY W281 LEGED N884 LUBAN LUBAN3R |
| Aircraft | A20N/M-SDE2E3FGHIRWXY/LB1 |
Departure
| Time | 2026-05-03 22:37 |
|---|---|
| Airport | Puerto Princesa International Airport / PAF Antonio Bautista Air Base (RPVP) |
Arrival
| Time | 2026-05-03 23:34 |
|---|---|
| Airport | Ninoy Aquino International Airport (RPLL) |
| Time | Latitude | Longitude | Altitude | Speed | Heading |
|---|---|---|---|---|---|
| 2026-05-03 22:20 | 9.74497 | 118.75153 | 75 ft | 0 kts | 3° |
| 2026-05-03 22:29 | 9.74496 | 118.75153 | 75 ft | 1 kts | 3° |
| 2026-05-03 22:29 | 9.74482 | 118.75153 | 75 ft | 2 kts | 2° |
| 2026-05-03 22:30 | 9.74466 | 118.75152 | 76 ft | 2 kts | 3° |
| 2026-05-03 22:30 | 9.74451 | 118.75151 | 75 ft | 2 kts | 3° |
| 2026-05-03 22:30 | 9.74437 | 118.75150 | 76 ft | 0 kts | 3° |
| 2026-05-03 22:30 | 9.74426 | 118.75150 | 76 ft | 2 kts | 340° |
| 2026-05-03 22:31 | 9.74414 | 118.75159 | 75 ft | 2 kts | 309° |
| 2026-05-03 22:31 | 9.74407 | 118.75172 | 75 ft | 1 kts | 279° |
| 2026-05-03 22:31 | 9.74407 | 118.75178 | 75 ft | 1 kts | 269° |
| 2026-05-03 22:31 | 9.74407 | 118.75181 | 75 ft | 0 kts | 272° |
| 2026-05-03 22:34 | 9.74407 | 118.75180 | 75 ft | 0 kts | 272° |
| 2026-05-03 22:34 | 9.74407 | 118.75167 | 75 ft | 3 kts | 272° |
| 2026-05-03 22:34 | 9.74409 | 118.75136 | 75 ft | 5 kts | 274° |
| 2026-05-03 22:34 | 9.74412 | 118.75087 | 75 ft | 8 kts | 272° |
| 2026-05-03 22:35 | 9.74414 | 118.75026 | 75 ft | 9 kts | 272° |
| 2026-05-03 22:35 | 9.74417 | 118.74958 | 75 ft | 10 kts | 272° |
| 2026-05-03 22:35 | 9.74420 | 118.74882 | 75 ft | 11 kts | 272° |
| 2026-05-03 22:35 | 9.74424 | 118.74802 | 75 ft | 11 kts | 273° |
| 2026-05-03 22:36 | 9.74413 | 118.74721 | 75 ft | 11 kts | 232° |
| 2026-05-03 22:36 | 9.74333 | 118.74706 | 75 ft | 12 kts | 178° |
| 2026-05-03 22:36 | 9.74258 | 118.74734 | 75 ft | 12 kts | 104° |
| 2026-05-03 22:36 | 9.74252 | 118.74862 | 75 ft | 38 kts | 92° |
| 2026-05-03 22:37 | 9.74228 | 118.75408 | 76 ft | 112 kts | 92° |
| 2026-05-03 22:37 | 9.74187 | 118.76398 | 104 ft | 165 kts | 91° |
| 2026-05-03 22:37 | 9.74120 | 118.77580 | 611 ft | 168 kts | 92° |
| 2026-05-03 22:37 | 9.74038 | 118.78745 | 1245 ft | 169 kts | 87° |
| 2026-05-03 22:38 | 9.74438 | 118.79798 | 1899 ft | 164 kts | 46° |
| 2026-05-03 22:38 | 9.75489 | 118.80315 | 2276 ft | 180 kts | 9° |
| 2026-05-03 22:38 | 9.76801 | 118.80437 | 2679 ft | 197 kts | 8° |
| 2026-05-03 22:38 | 9.78222 | 118.80620 | 3018 ft | 219 kts | 11° |
| 2026-05-03 22:39 | 9.79790 | 118.80913 | 3487 ft | 237 kts | 14° |
| 2026-05-03 22:39 | 9.81433 | 118.81284 | 4195 ft | 244 kts | 15° |
| 2026-05-03 22:39 | 9.83076 | 118.81683 | 4987 ft | 247 kts | 16° |
| 2026-05-03 22:39 | 9.84751 | 118.82103 | 5788 ft | 249 kts | 16° |
| 2026-05-03 22:40 | 9.86418 | 118.82527 | 6567 ft | 252 kts | 16° |
| 2026-05-03 22:40 | 9.88140 | 118.82957 | 7337 ft | 256 kts | 13° |
| 2026-05-03 22:40 | 9.89916 | 118.83196 | 8073 ft | 261 kts | 5° |
| 2026-05-03 22:40 | 9.91774 | 118.83213 | 8561 ft | 276 kts | 1° |
| 2026-05-03 22:41 | 9.93747 | 118.83157 | 9087 ft | 288 kts | 0° |
| 2026-05-03 22:41 | 9.95772 | 118.83088 | 9801 ft | 292 kts | 0° |
| 2026-05-03 22:41 | 9.97795 | 118.83019 | 10468 ft | 297 kts | 0° |
| 2026-05-03 22:41 | 9.99947 | 118.82951 | 10841 ft | 313 kts | 0° |
| 2026-05-03 22:42 | 10.02193 | 118.82883 | 11142 ft | 331 kts | 0° |
| 2026-05-03 22:42 | 10.04547 | 118.82812 | 11522 ft | 344 kts | 0° |
| 2026-05-03 22:42 | 10.06955 | 118.82739 | 12133 ft | 349 kts | 0° |
| 2026-05-03 22:42 | 10.09405 | 118.82664 | 12801 ft | 352 kts | 0° |
| 2026-05-03 22:43 | 10.11852 | 118.82591 | 13428 ft | 355 kts | 0° |
| 2026-05-03 22:43 | 10.14335 | 118.82516 | 14029 ft | 359 kts | 0° |
| 2026-05-03 22:43 | 10.16863 | 118.82441 | 14623 ft | 363 kts | 0° |
| 2026-05-03 22:43 | 10.19391 | 118.82365 | 15190 ft | 367 kts | 0° |
| 2026-05-03 22:44 | 10.21964 | 118.82288 | 15742 ft | 371 kts | 0° |
| 2026-05-03 22:44 | 10.24551 | 118.82210 | 16275 ft | 374 kts | 0° |
| 2026-05-03 22:44 | 10.27183 | 118.82131 | 16801 ft | 378 kts | 0° |
| 2026-05-03 22:44 | 10.29831 | 118.82053 | 17312 ft | 382 kts | 0° |
| 2026-05-03 22:45 | 10.32501 | 118.81976 | 17816 ft | 385 kts | 0° |
| 2026-05-03 22:45 | 10.35194 | 118.81896 | 18313 ft | 388 kts | 0° |
| 2026-05-03 22:45 | 10.37943 | 118.81815 | 18807 ft | 391 kts | 0° |
| 2026-05-03 22:45 | 10.40664 | 118.81773 | 19288 ft | 393 kts | 2° |
| 2026-05-03 22:46 | 10.43394 | 118.81884 | 19760 ft | 395 kts | 5° |
| 2026-05-03 22:46 | 10.46154 | 118.82068 | 20223 ft | 398 kts | 6° |
| 2026-05-03 22:46 | 10.48936 | 118.82265 | 20673 ft | 400 kts | 6° |
| 2026-05-03 22:46 | 10.51736 | 118.82465 | 21109 ft | 403 kts | 6° |
| 2026-05-03 22:47 | 10.54558 | 118.82664 | 21542 ft | 406 kts | 5° |
| 2026-05-03 22:47 | 10.57357 | 118.82862 | 21959 ft | 409 kts | 5° |
| 2026-05-03 22:47 | 10.60226 | 118.83064 | 22378 ft | 412 kts | 5° |
| 2026-05-03 22:47 | 10.63106 | 118.83266 | 22808 ft | 415 kts | 5° |
| 2026-05-03 22:48 | 10.66009 | 118.83471 | 23228 ft | 418 kts | 5° |
| 2026-05-03 22:48 | 10.68926 | 118.83675 | 23640 ft | 421 kts | 5° |
| 2026-05-03 22:48 | 10.71848 | 118.83880 | 24047 ft | 424 kts | 5° |
| 2026-05-03 22:48 | 10.74821 | 118.84089 | 24454 ft | 426 kts | 5° |
| 2026-05-03 22:49 | 10.77790 | 118.84297 | 24851 ft | 429 kts | 5° |
| 2026-05-03 22:49 | 10.80762 | 118.84507 | 25238 ft | 432 kts | 5° |
| 2026-05-03 22:49 | 10.83802 | 118.84721 | 25621 ft | 434 kts | 5° |
| 2026-05-03 22:49 | 10.86814 | 118.84932 | 25990 ft | 437 kts | 5° |
| 2026-05-03 22:50 | 10.89890 | 118.85149 | 26358 ft | 440 kts | 5° |
| 2026-05-03 22:50 | 10.92936 | 118.85363 | 26713 ft | 442 kts | 5° |
| 2026-05-03 22:50 | 10.95999 | 118.85579 | 27064 ft | 444 kts | 5° |
| 2026-05-03 22:50 | 10.99119 | 118.85799 | 27407 ft | 447 kts | 5° |
| 2026-05-03 22:51 | 11.02218 | 118.86018 | 27729 ft | 449 kts | 5° |
| 2026-05-03 22:51 | 11.05374 | 118.86242 | 28048 ft | 451 kts | 5° |
| 2026-05-03 22:51 | 11.08504 | 118.86462 | 28398 ft | 452 kts | 5° |
| 2026-05-03 22:51 | 11.11632 | 118.86683 | 28845 ft | 451 kts | 5° |
| 2026-05-03 22:52 | 11.14756 | 118.86901 | 29295 ft | 449 kts | 5° |
| 2026-05-03 22:52 | 11.17916 | 118.87121 | 29715 ft | 448 kts | 5° |
| 2026-05-03 22:52 | 11.20992 | 118.87334 | 30098 ft | 448 kts | 5° |
| 2026-05-03 22:52 | 11.24139 | 118.87555 | 30481 ft | 447 kts | 5° |
| 2026-05-03 22:53 | 11.27252 | 118.87774 | 30860 ft | 447 kts | 4° |
| 2026-05-03 22:53 | 11.30352 | 118.87992 | 31238 ft | 446 kts | 4° |
| 2026-05-03 22:53 | 11.33418 | 118.88208 | 31595 ft | 445 kts | 4° |
| 2026-05-03 22:53 | 11.36518 | 118.88426 | 31949 ft | 445 kts | 4° |
| 2026-05-03 22:54 | 11.39614 | 118.88644 | 32304 ft | 444 kts | 4° |
| 2026-05-03 22:54 | 11.42721 | 118.88863 | 32680 ft | 444 kts | 4° |
| 2026-05-03 22:54 | 11.45793 | 118.89079 | 33077 ft | 443 kts | 4° |
| 2026-05-03 22:54 | 11.48848 | 118.89294 | 33462 ft | 442 kts | 4° |
| 2026-05-03 22:55 | 11.51965 | 118.89514 | 33781 ft | 443 kts | 4° |
| 2026-05-03 22:55 | 11.55032 | 118.89732 | 34078 ft | 444 kts | 4° |
| 2026-05-03 22:55 | 11.58139 | 118.89951 | 34382 ft | 445 kts | 4° |
| 2026-05-03 22:55 | 11.61196 | 118.90167 | 34647 ft | 446 kts | 4° |
| 2026-05-03 22:56 | 11.64338 | 118.90389 | 34895 ft | 447 kts | 4° |
| 2026-05-03 22:56 | 11.70549 | 118.90828 | 34916 ft | 447 kts | 4° |
| 2026-05-03 22:57 | 11.76749 | 118.91265 | 34918 ft | 447 kts | 4° |
| 2026-05-03 22:57 | 11.82949 | 118.91702 | 34919 ft | 447 kts | 4° |
| 2026-05-03 22:58 | 11.89174 | 118.92144 | 34916 ft | 447 kts | 4° |
| 2026-05-03 22:58 | 11.95416 | 118.92587 | 34919 ft | 447 kts | 4° |
| 2026-05-03 22:59 | 12.01619 | 118.93026 | 34913 ft | 447 kts | 4° |
| 2026-05-03 22:59 | 12.07849 | 118.93467 | 34904 ft | 447 kts | 4° |
| 2026-05-03 23:00 | 12.14049 | 118.93906 | 34902 ft | 447 kts | 4° |
| 2026-05-03 23:00 | 12.20294 | 118.94348 | 34901 ft | 447 kts | 4° |
| 2026-05-03 23:01 | 12.26479 | 118.94788 | 34904 ft | 447 kts | 4° |
| 2026-05-03 23:01 | 12.32719 | 118.95232 | 34904 ft | 447 kts | 4° |
| 2026-05-03 23:02 | 12.38964 | 118.95677 | 34905 ft | 448 kts | 4° |
| 2026-05-03 23:02 | 12.45175 | 118.96119 | 34906 ft | 449 kts | 3° |
| 2026-05-03 23:03 | 12.51422 | 118.96564 | 34909 ft | 447 kts | 3° |
| 2026-05-03 23:03 | 12.57616 | 118.97002 | 34909 ft | 447 kts | 3° |
| 2026-05-03 23:04 | 12.63855 | 118.97447 | 34909 ft | 446 kts | 3° |
| 2026-05-03 23:04 | 12.70067 | 118.97890 | 34911 ft | 446 kts | 3° |
| 2026-05-03 23:05 | 12.76238 | 118.98331 | 34912 ft | 445 kts | 3° |
| 2026-05-03 23:05 | 12.82430 | 118.98776 | 34913 ft | 444 kts | 2° |
| 2026-05-03 23:06 | 12.88609 | 118.99217 | 34920 ft | 443 kts | 3° |
| 2026-05-03 23:06 | 12.94736 | 118.99777 | 34924 ft | 443 kts | 9° |
| 2026-05-03 23:07 | 13.00622 | 119.01760 | 34931 ft | 446 kts | 26° |
| 2026-05-03 23:07 | 13.05722 | 119.05366 | 34923 ft | 448 kts | 43° |
| 2026-05-03 23:08 | 13.09787 | 119.10197 | 34922 ft | 449 kts | 52° |
| 2026-05-03 23:08 | 13.13621 | 119.15324 | 34920 ft | 449 kts | 52° |
| 2026-05-03 23:09 | 13.17428 | 119.20390 | 34921 ft | 450 kts | 52° |
| 2026-05-03 23:09 | 13.21247 | 119.25449 | 34615 ft | 449 kts | 51° |
| 2026-05-03 23:09 | 13.23155 | 119.27972 | 34041 ft | 448 kts | 51° |
| 2026-05-03 23:10 | 13.25093 | 119.30535 | 32886 ft | 457 kts | 51° |
| 2026-05-03 23:10 | 13.27029 | 119.33094 | 32151 ft | 458 kts | 51° |
| 2026-05-03 23:10 | 13.28980 | 119.35671 | 31481 ft | 458 kts | 52° |
| 2026-05-03 23:10 | 13.30934 | 119.38249 | 30805 ft | 458 kts | 52° |
| 2026-05-03 23:11 | 13.32902 | 119.40850 | 30114 ft | 458 kts | 52° |
| 2026-05-03 23:11 | 13.34841 | 119.43415 | 29430 ft | 458 kts | 53° |
| 2026-05-03 23:11 | 13.36789 | 119.45992 | 28734 ft | 457 kts | 53° |
| 2026-05-03 23:11 | 13.38730 | 119.48565 | 28021 ft | 457 kts | 53° |
| 2026-05-03 23:12 | 13.40667 | 119.51135 | 27463 ft | 452 kts | 53° |
| 2026-05-03 23:12 | 13.42569 | 119.53657 | 26973 ft | 447 kts | 53° |
| 2026-05-03 23:12 | 13.44449 | 119.56149 | 26479 ft | 441 kts | 53° |
| 2026-05-03 23:12 | 13.46297 | 119.58600 | 25925 ft | 427 kts | 53° |
| 2026-05-03 23:13 | 13.48101 | 119.60992 | 25225 ft | 416 kts | 53° |
| 2026-05-03 23:13 | 13.49855 | 119.63319 | 24247 ft | 413 kts | 53° |
| 2026-05-03 23:13 | 13.51596 | 119.65632 | 23249 ft | 409 kts | 54° |
| 2026-05-03 23:13 | 13.53327 | 119.67934 | 22341 ft | 403 kts | 53° |
| 2026-05-03 23:14 | 13.55003 | 119.70161 | 21902 ft | 398 kts | 53° |
| 2026-05-03 23:14 | 13.56721 | 119.72445 | 21664 ft | 400 kts | 54° |
| 2026-05-03 23:14 | 13.58412 | 119.74693 | 21431 ft | 398 kts | 54° |
| 2026-05-03 23:14 | 13.60086 | 119.76918 | 21285 ft | 397 kts | 54° |
| 2026-05-03 23:15 | 13.61790 | 119.79184 | 21169 ft | 396 kts | 53° |
| 2026-05-03 23:15 | 13.63462 | 119.81407 | 21053 ft | 396 kts | 54° |
| 2026-05-03 23:15 | 13.65142 | 119.83642 | 20822 ft | 397 kts | 54° |
| 2026-05-03 23:15 | 13.66822 | 119.85877 | 20303 ft | 395 kts | 54° |
| 2026-05-03 23:16 | 13.68498 | 119.88106 | 19797 ft | 393 kts | 53° |
| 2026-05-03 23:16 | 13.70181 | 119.90324 | 19311 ft | 390 kts | 53° |
| 2026-05-03 23:16 | 13.71846 | 119.92508 | 18843 ft | 386 kts | 53° |
| 2026-05-03 23:16 | 13.73484 | 119.94659 | 18378 ft | 382 kts | 53° |
| 2026-05-03 23:17 | 13.75110 | 119.96792 | 17912 ft | 379 kts | 53° |
| 2026-05-03 23:17 | 13.76732 | 119.98901 | 17604 ft | 373 kts | 53° |
| 2026-05-03 23:17 | 13.78354 | 120.01006 | 17370 ft | 372 kts | 53° |
| 2026-05-03 23:17 | 13.79940 | 120.03072 | 17139 ft | 371 kts | 53° |
| 2026-05-03 23:18 | 13.81547 | 120.05170 | 16905 ft | 370 kts | 53° |
| 2026-05-03 23:18 | 13.83129 | 120.07240 | 16673 ft | 369 kts | 53° |
| 2026-05-03 23:18 | 13.84713 | 120.09315 | 16437 ft | 367 kts | 53° |
| 2026-05-03 23:18 | 13.86279 | 120.11369 | 16208 ft | 366 kts | 53° |
| 2026-05-03 23:19 | 13.87854 | 120.13434 | 15972 ft | 364 kts | 53° |
| 2026-05-03 23:19 | 13.89415 | 120.15483 | 15737 ft | 363 kts | 53° |
| 2026-05-03 23:19 | 13.90970 | 120.17525 | 15495 ft | 361 kts | 53° |
| 2026-05-03 23:19 | 13.92515 | 120.19553 | 15248 ft | 360 kts | 53° |
| 2026-05-03 23:20 | 13.94043 | 120.21560 | 14938 ft | 358 kts | 53° |
| 2026-05-03 23:20 | 13.95588 | 120.23589 | 14546 ft | 356 kts | 53° |
| 2026-05-03 23:20 | 13.97093 | 120.25568 | 14113 ft | 354 kts | 53° |
| 2026-05-03 23:20 | 13.98605 | 120.27555 | 13661 ft | 351 kts | 53° |
| 2026-05-03 23:21 | 14.00108 | 120.29533 | 13205 ft | 350 kts | 53° |
| 2026-05-03 23:21 | 14.01609 | 120.31504 | 12752 ft | 348 kts | 53° |
| 2026-05-03 23:21 | 14.03102 | 120.33467 | 12299 ft | 346 kts | 53° |
| 2026-05-03 23:21 | 14.04569 | 120.35399 | 11838 ft | 344 kts | 52° |
| 2026-05-03 23:22 | 14.07494 | 120.39250 | 10922 ft | 341 kts | 52° |
| 2026-05-03 23:22 | 14.08952 | 120.41170 | 10502 ft | 337 kts | 52° |
| 2026-05-03 23:22 | 14.10367 | 120.43033 | 10249 ft | 327 kts | 52° |
| 2026-05-03 23:23 | 14.11746 | 120.44850 | 10155 ft | 312 kts | 52° |
| 2026-05-03 23:23 | 14.13057 | 120.46578 | 10081 ft | 298 kts | 52° |
| 2026-05-03 23:23 | 14.14307 | 120.48228 | 9993 ft | 285 kts | 52° |
| 2026-05-03 23:23 | 14.15531 | 120.49841 | 9623 ft | 284 kts | 52° |
| 2026-05-03 23:24 | 14.16745 | 120.51444 | 9258 ft | 283 kts | 52° |
| 2026-05-03 23:24 | 14.17956 | 120.53040 | 8903 ft | 281 kts | 52° |
| 2026-05-03 23:24 | 14.19155 | 120.54622 | 8557 ft | 279 kts | 52° |
| 2026-05-03 23:24 | 14.20343 | 120.56191 | 8207 ft | 278 kts | 52° |
| 2026-05-03 23:25 | 14.21529 | 120.57757 | 7866 ft | 275 kts | 52° |
| 2026-05-03 23:25 | 14.22699 | 120.59301 | 7540 ft | 273 kts | 52° |
| 2026-05-03 23:25 | 14.23861 | 120.60836 | 7217 ft | 270 kts | 52° |
| 2026-05-03 23:25 | 14.25009 | 120.62352 | 6891 ft | 268 kts | 52° |
| 2026-05-03 23:26 | 14.26152 | 120.63862 | 6567 ft | 265 kts | 52° |
| 2026-05-03 23:26 | 14.27280 | 120.65350 | 6247 ft | 263 kts | 52° |
| 2026-05-03 23:26 | 14.28411 | 120.66843 | 5916 ft | 261 kts | 53° |
| 2026-05-03 23:26 | 14.29514 | 120.68302 | 5593 ft | 259 kts | 53° |
| 2026-05-03 23:27 | 14.30618 | 120.69761 | 5268 ft | 258 kts | 53° |
| 2026-05-03 23:27 | 14.31715 | 120.71210 | 4943 ft | 255 kts | 53° |
| 2026-05-03 23:27 | 14.32799 | 120.72645 | 4619 ft | 253 kts | 53° |
| 2026-05-03 23:27 | 14.33892 | 120.74091 | 4291 ft | 251 kts | 53° |
| 2026-05-03 23:28 | 14.35031 | 120.75436 | 3973 ft | 250 kts | 45° |
| 2026-05-03 23:28 | 14.36322 | 120.76636 | 3659 ft | 248 kts | 46° |
| 2026-05-03 23:28 | 14.37442 | 120.77959 | 3355 ft | 244 kts | 55° |
| 2026-05-03 23:28 | 14.38375 | 120.79432 | 3082 ft | 240 kts | 60° |
| 2026-05-03 23:29 | 14.39188 | 120.80866 | 3018 ft | 227 kts | 61° |
| 2026-05-03 23:29 | 14.39952 | 120.82254 | 3011 ft | 214 kts | 61° |
| 2026-05-03 23:29 | 14.40686 | 120.83594 | 3018 ft | 214 kts | 61° |
| 2026-05-03 23:29 | 14.41421 | 120.84929 | 3014 ft | 210 kts | 61° |
| 2026-05-03 23:30 | 14.42116 | 120.86188 | 2929 ft | 200 kts | 61° |
| 2026-05-03 23:30 | 14.42810 | 120.87441 | 2693 ft | 198 kts | 61° |
| 2026-05-03 23:30 | 14.43483 | 120.88657 | 2458 ft | 196 kts | 61° |
| 2026-05-03 23:30 | 14.44146 | 120.89853 | 2279 ft | 187 kts | 61° |
| 2026-05-03 23:31 | 14.44785 | 120.91005 | 2011 ft | 183 kts | 61° |
| 2026-05-03 23:31 | 14.45396 | 120.92107 | 1750 ft | 170 kts | 61° |
| 2026-05-03 23:31 | 14.45959 | 120.93122 | 1543 ft | 157 kts | 60° |
| 2026-05-03 23:31 | 14.46479 | 120.94059 | 1336 ft | 144 kts | 60° |
| 2026-05-03 23:32 | 14.46973 | 120.94949 | 1155 ft | 141 kts | 60° |
| 2026-05-03 23:32 | 14.47452 | 120.95813 | 991 ft | 140 kts | 60° |
| 2026-05-03 23:32 | 14.47941 | 120.96694 | 813 ft | 140 kts | 62° |
| 2026-05-03 23:32 | 14.48423 | 120.97562 | 618 ft | 139 kts | 61° |
| 2026-05-03 23:33 | 14.48904 | 120.98428 | 449 ft | 139 kts | 60° |
| 2026-05-03 23:33 | 14.49385 | 120.99283 | 284 ft | 138 kts | 61° |
| 2026-05-03 23:33 | 14.49858 | 121.00146 | 124 ft | 137 kts | 60° |
| 2026-05-03 23:33 | 14.50302 | 121.00943 | 82 ft | 109 kts | 61° |
| 2026-05-03 23:34 | 14.50592 | 121.01469 | 82 ft | 59 kts | 60° |
| 2026-05-03 23:34 | 14.50757 | 121.01711 | 82 ft | 30 kts | 41° |
| 2026-05-03 23:34 | 14.50868 | 121.01788 | 82 ft | 13 kts | 4° |
| 2026-05-03 23:34 | 14.50942 | 121.01732 | 82 ft | 13 kts | 312° |
| 2026-05-03 23:35 | 14.51011 | 121.01661 | 82 ft | 14 kts | 318° |
| 2026-05-03 23:35 | 14.51084 | 121.01588 | 82 ft | 14 kts | 314° |
| 2026-05-03 23:35 | 14.51155 | 121.01514 | 82 ft | 14 kts | 315° |
| 2026-05-03 23:35 | 14.51219 | 121.01448 | 82 ft | 12 kts | 315° |
| 2026-05-03 23:36 | 14.51297 | 121.01448 | 82 ft | 12 kts | 46° |
| 2026-05-03 23:36 | 14.51355 | 121.01521 | 82 ft | 13 kts | 48° |
| 2026-05-03 23:36 | 14.51426 | 121.01588 | 82 ft | 13 kts | 34° |
| 2026-05-03 23:36 | 14.51503 | 121.01653 | 82 ft | 14 kts | 45° |
| 2026-05-03 23:37 | 14.51575 | 121.01726 | 82 ft | 14 kts | 45° |
| 2026-05-03 23:37 | 14.51644 | 121.01784 | 82 ft | 11 kts | 16° |
| 2026-05-03 23:37 | 14.51715 | 121.01756 | 82 ft | 11 kts | 315° |
| 2026-05-03 23:37 | 14.51731 | 121.01717 | 82 ft | 5 kts | 224° |
| 2026-05-03 23:38 | 14.51692 | 121.01699 | 82 ft | 6 kts | 202° |
| 2026-05-03 23:38 | 14.51667 | 121.01689 | 82 ft | 0 kts | 201° |